Terminal Aerodrome Forecast
Issued by NWS

Home | Current Version | Previous Version | Text Only | Print | Product List | Glossary On
Versions: 1 2 3 4 5 6 7 8 9 10 11 12 13 14 15 16 17 18 19 20 21
000
FTUS43 KILX 010520
TAFDEC
TAF
KDEC 010520Z 0106/0206 35005KT 6SM BR VCSH SCT006 OVC012
     FM010900 35004KT 4SM -DZ BR BKN006 OVC012
     FM011100 33004KT 1 1/2SM -DZ BR OVC003
     FM011600 29005KT P6SM VCSH BKN015 OVC035
     FM020000 29005KT P6SM OVC025=

USA.gov is the U.S. government's official web portal to all federal, state and local government web resources and services.